Terminal Aerodrome Forecast
Issued by NWS Sterling, VA

Home | Current Version | Previous Version | Text Only | Print | Product List | Glossary On
Versions: 1 2 3 4 5 6 7 8 9 10 11 12 13 14 15 16 17 18 19 20 21 22 23 24
000
FTUS41 KLWX 301400 AAA
TAFBWI
TAF AMD
KBWI 301447Z 3015/3118 30006KT P6SM FEW080 SCT250
     FM310000 VRB03KT P6SM FEW040
     FM310400 00000KT P6SM FEW150=

USA.gov is the U.S. government's official web portal to all federal, state and local government web resources and services.